Time;durP1;ratioP1;P1;durP2;ratioP2;P2;SDS_P1;SDS_P2;PMS_P1;PMS_P2;Temp;Humidity;BMP_temperature;BMP_pressure;BME280_temperature;BME280_humidity;BME280_pressure;Samples;Min_cycle;Max_cycle;Signal;HPM_P1;HPM_P2
2022/10/23 00:00:36;;;;;;;;;3.00;3.00;;;;;;;;5043612;28;61769;-78
2022/10/23 00:03:01;;;;;;;;;3.50;3.50;;;;;;;;5043401;28;61942;-77
2022/10/23 00:05:27;;;;;;;;;7.75;5.00;;;;;;;;5044166;28;61757;-77
2022/10/23 00:07:53;;;;;;;;;20.50;18.25;;;;;;;;5042453;28;61699;-77
2022/10/23 00:10:19;;;;;;;;;9.25;7.25;;;;;;;;5043306;28;61727;-78
2022/10/23 00:12:45;;;;;;;;;9.25;7.00;;;;;;;;5043085;28;61985;-77
2022/10/23 00:15:10;;;;;;;;;4.25;3.50;;;;;;;;5025412;28;61844;-77
2022/10/23 00:17:37;;;;;;;;;7.00;3.25;;;;;;;;5042835;28;61795;-78
2022/10/23 00:20:03;;;;;;;;;3.50;3.50;;;;;;;;5043168;28;61933;-77
2022/10/23 00:22:28;;;;;;;;;3.50;3.50;;;;;;;;5025373;28;62213;-77
2022/10/23 00:24:53;;;;;;;;;8.00;4.00;;;;;;;;5043581;28;61940;-77
2022/10/23 00:27:18;;;;;;;;;3.25;3.25;;;;;;;;5024384;28;64203;-77
2022/10/23 00:29:44;;;;;;;;;7.00;3.25;;;;;;;;5043290;28;61768;-77
2022/10/23 00:32:09;;;;;;;;;4.75;4.75;;;;;;;;5024923;28;61967;-78
2022/10/23 00:34:34;;;;;;;;;3.25;3.25;;;;;;;;5043634;28;61736;-77
2022/10/23 00:37:00;;;;;;;;;6.50;3.25;;;;;;;;5042539;28;61816;-77
2022/10/23 00:39:25;;;;;;;;;4.00;4.00;;;;;;;;5025112;28;61925;-78
2022/10/23 00:41:50;;;;;;;;;5.50;4.50;;;;;;;;5043144;28;61772;-77
2022/10/23 00:44:19;;;;;;;;;3.00;3.00;;;;;;;;5043149;28;61748;-77
2022/10/23 00:46:45;;;;;;;;;5.67;4.67;;;;;;;;5024640;28;64786;-77
2022/10/23 00:49:10;;;;;;;;;5.00;3.00;;;;;;;;5024515;28;61914;-77
2022/10/23 00:51:50;;;;;;;;;5.00;4.00;;;;;;;;5042740;28;61722;-78
2022/10/23 00:54:16;;;;;;;;;3.75;2.75;;;;;;;;5042814;28;61764;-78
2022/10/23 00:56:43;;;;;;;;;4.50;3.50;;;;;;;;5042148;28;61992;-77
2022/10/23 00:59:08;;;;;;;;;2.25;1.50;;;;;;;;5042712;28;61851;-78
2022/10/23 01:01:33;;;;;;;;;4.00;0.50;;;;;;;;5043024;28;61825;-78
2022/10/23 01:04:00;;;;;;;;;3.50;3.50;;;;;;;;5043070;28;62181;-78
2022/10/23 01:06:37;;;;;;;;;4.50;3.50;;;;;;;;5042044;28;62721;-78
2022/10/23 01:09:14;;;;;;;;;3.50;3.50;;;;;;;;5042385;28;61894;-78
2022/10/23 01:11:42;;;;;;;;;4.75;3.00;;;;;;;;5024136;28;61977;-78
2022/10/23 01:14:16;;;;;;;;;2.00;2.00;;;;;;;;5024669;28;62144;-78
2022/10/23 01:16:49;;;;;;;;;7.75;3.25;;;;;;;;5041978;28;61791;-78
2022/10/23 01:19:37;;;;;;;;;3.75;2.50;;;;;;;;5041633;28;61706;-78
2022/10/23 01:22:21;;;;;;;;;3.25;2.75;;;;;;;;5008212;28;61767;-78
2022/10/23 01:24:56;;;;;;;;;2.75;2.50;;;;;;;;5042824;28;61676;-78
2022/10/23 01:27:24;;;;;;;;;2.25;1.25;;;;;;;;5040748;28;61771;-77
2022/10/23 01:29:57;;;;;;;;;4.25;3.25;;;;;;;;5042432;28;61810;-78
2022/10/23 01:32:34;;;;;;;;;4.50;4.25;;;;;;;;5023991;28;61953;-77
2022/10/23 01:35:03;;;;;;;;;6.00;3.25;;;;;;;;5042387;28;61785;-77
2022/10/23 01:37:34;;;;;;;;;2.50;2.50;;;;;;;;5041633;28;61758;-78
2022/10/23 01:40:01;;;;;;;;;4.00;3.00;;;;;;;;5024396;28;61732;-78
2022/10/23 01:42:29;;;;;;;;;3.00;3.00;;;;;;;;5041998;28;61733;-77
2022/10/23 01:45:05;;;;;;;;;4.25;3.00;;;;;;;;5042453;28;61809;-78
2022/10/23 01:47:33;;;;;;;;;5.00;3.25;;;;;;;;5023306;28;63677;-77
2022/10/23 01:49:58;;;;;;;;;3.50;2.50;;;;;;;;5041882;28;61810;-78
2022/10/23 01:52:24;;;;;;;;;2.33;1.67;;;;;;;;5023744;28;61811;-77
2022/10/23 01:54:51;;;;;;;;;1.50;1.50;;;;;;;;5042191;28;61957;-77
2022/10/23 01:57:19;;;;;;;;;1.00;1.00;;;;;;;;5023168;28;64254;-78
2022/10/23 02:00:05;;;;;;;;;1.67;1.00;;;;;;;;5042018;28;61865;-77
2022/10/23 02:02:32;;;;;;;;;3.50;2.25;;;;;;;;5040721;28;61754;-77
2022/10/23 02:05:01;;;;;;;;;1.00;1.00;;;;;;;;5024124;28;61883;-77
2022/10/23 02:07:27;;;;;;;;;2.33;1.33;;;;;;;;5041125;28;61825;-77
2022/10/23 02:09:52;;;;;;;;;2.00;2.00;;;;;;;;5044086;28;61885;-77
2022/10/23 02:12:25;;;;;;;;;2.00;2.00;;;;;;;;5041622;28;62271;-78
2022/10/23 02:14:53;;;;;;;;;3.00;1.00;;;;;;;;5042166;28;61789;-77
2022/10/23 02:17:24;;;;;;;;;1.00;1.00;;;;;;;;5040968;28;62189;-77
2022/10/23 02:19:57;;;;;;;;;0.67;0.00;;;;;;;;5023462;28;61873;-77
2022/10/23 02:22:22;;;;;;;;;2.25;2.00;;;;;;;;5041482;28;61704;-77
2022/10/23 02:24:55;;;;;;;;;1.25;1.25;;;;;;;;5041956;28;61691;-78
2022/10/23 02:27:34;;;;;;;;;0.67;0.67;;;;;;;;5040963;28;61923;-78
2022/10/23 02:30:04;;;;;;;;;3.25;1.75;;;;;;;;5023511;28;61934;-78
2022/10/23 02:32:29;;;;;;;;;2.50;1.00;;;;;;;;5041087;28;61766;-77
2022/10/23 02:34:55;;;;;;;;;2.50;1.00;;;;;;;;5041884;28;61898;-77
2022/10/23 02:37:21;;;;;;;;;2.75;2.00;;;;;;;;5040769;28;62022;-77
2022/10/23 02:39:47;;;;;;;;;1.25;1.25;;;;;;;;5043216;28;61850;-78
2022/10/23 02:42:28;;;;;;;;;2.50;1.25;;;;;;;;5044975;28;61898;-77
2022/10/23 02:44:53;;;;;;;;;4.50;1.00;;;;;;;;5045115;28;61949;-77
2022/10/23 02:47:18;;;;;;;;;2.50;2.25;;;;;;;;5043893;28;62109;-77
2022/10/23 02:49:49;;;;;;;;;2.25;1.00;;;;;;;;5044753;28;62164;-77
2022/10/23 02:52:41;;;;;;;;;2.25;1.25;;;;;;;;5044732;28;61822;-77
2022/10/23 02:55:06;;;;;;;;;1.75;1.75;;;;;;;;4996344;28;61725;-77
2022/10/23 02:57:49;;;;;;;;;6.25;2.50;;;;;;;;5043879;28;61879;-77
2022/10/23 03:00:17;;;;;;;;;1.00;1.00;;;;;;;;5044449;28;61812;-77
2022/10/23 03:02:49;;;;;;;;;3.25;2.50;;;;;;;;5044784;28;61685;-77
2022/10/23 03:05:19;;;;;;;;;2.00;2.00;;;;;;;;5044978;28;61842;-77
2022/10/23 03:07:45;;;;;;;;;1.67;1.67;;;;;;;;5043975;28;61945;-77
2022/10/23 03:10:11;;;;;;;;;2.33;1.00;;;;;;;;5046632;28;61909;-77
2022/10/23 03:12:36;;;;;;;;;3.50;2.00;;;;;;;;5025991;28;62093;-77
2022/10/23 03:15:01;;;;;;;;;3.75;2.00;;;;;;;;5026666;28;61754;-77
2022/10/23 03:17:27;;;;;;;;;1.00;1.00;;;;;;;;5043629;28;61824;-77
2022/10/23 03:19:52;;;;;;;;;3.50;2.00;;;;;;;;5044337;28;61968;-77
2022/10/23 03:22:17;;;;;;;;;1.25;1.25;;;;;;;;5044306;28;61912;-77
2022/10/23 03:24:42;;;;;;;;;1.67;1.67;;;;;;;;5026644;28;61904;-77
2022/10/23 03:27:10;;;;;;;;;0.50;0.50;;;;;;;;5043830;28;61831;-77
2022/10/23 03:29:35;;;;;;;;;2.75;1.75;;;;;;;;5043964;28;61617;-77
2022/10/23 03:32:00;;;;;;;;;2.50;2.00;;;;;;;;5044307;28;61917;-77
2022/10/23 03:34:25;;;;;;;;;1.50;1.25;;;;;;;;5044324;28;61759;-78
2022/10/23 03:36:51;;;;;;;;;2.50;1.50;;;;;;;;5025670;28;65255;-78
2022/10/23 03:39:16;;;;;;;;;2.25;1.75;;;;;;;;5026242;28;61926;-78
2022/10/23 03:41:41;;;;;;;;;2.75;1.00;;;;;;;;5043898;28;61638;-78
2022/10/23 03:44:07;;;;;;;;;3.00;2.00;;;;;;;;5025722;28;61749;-77
2022/10/23 03:46:32;;;;;;;;;0.50;0.50;;;;;;;;5025097;28;64547;-78
2022/10/23 03:48:58;;;;;;;;;1.00;1.00;;;;;;;;5025695;28;61693;-77
2022/10/23 03:51:23;;;;;;;;;3.25;2.00;;;;;;;;5043301;28;61794;-77
2022/10/23 03:53:49;;;;;;;;;3.00;2.00;;;;;;;;5043845;28;61955;-77
2022/10/23 03:56:14;;;;;;;;;3.50;2.50;;;;;;;;5043269;28;62826;-77
2022/10/23 03:58:39;;;;;;;;;3.75;1.00;;;;;;;;5043056;28;61926;-77
2022/10/23 04:01:05;;;;;;;;;2.00;1.00;;;;;;;;5043774;28;61786;-77
2022/10/23 04:03:30;;;;;;;;;1.00;1.00;;;;;;;;5043943;28;61760;-77
2022/10/23 04:05:55;;;;;;;;;3.75;1.75;;;;;;;;5043177;28;62975;-77
2022/10/23 04:08:20;;;;;;;;;2.00;2.00;;;;;;;;5043596;28;61823;-77
2022/10/23 04:10:46;;;;;;;;;3.00;2.00;;;;;;;;5027040;28;61776;-76
2022/10/23 04:13:11;;;;;;;;;4.75;1.00;;;;;;;;5043156;28;61771;-77
2022/10/23 04:15:36;;;;;;;;;2.00;2.00;;;;;;;;5024958;28;64589;-77
2022/10/23 04:18:02;;;;;;;;;2.50;2.50;;;;;;;;5043270;28;61964;-77
2022/10/23 04:20:27;;;;;;;;;3.75;2.00;;;;;;;;5025221;28;61754;-77
2022/10/23 04:22:52;;;;;;;;;2.00;1.00;;;;;;;;5043641;28;61973;-78
2022/10/23 04:25:18;;;;;;;;;2.33;1.67;;;;;;;;5042807;28;61892;-78
2022/10/23 04:27:43;;;;;;;;;3.00;1.67;;;;;;;;5042877;28;62080;-77
2022/10/23 04:30:08;;;;;;;;;2.50;1.00;;;;;;;;5043540;28;61862;-78
2022/10/23 04:32:34;;;;;;;;;3.75;2.50;;;;;;;;5043151;28;61778;-76
2022/10/23 04:34:59;;;;;;;;;2.00;2.00;;;;;;;;5042610;28;61825;-78
2022/10/23 04:37:24;;;;;;;;;1.00;1.00;;;;;;;;5025087;28;61821;-78
2022/10/23 04:39:50;;;;;;;;;3.00;1.75;;;;;;;;5043020;28;61925;-78
2022/10/23 04:42:15;;;;;;;;;3.00;1.25;;;;;;;;5024818;28;62010;-78
2022/10/23 04:44:40;;;;;;;;;2.33;2.33;;;;;;;;5024313;28;63606;-78
2022/10/23 04:47:06;;;;;;;;;2.67;2.00;;;;;;;;5024758;28;61843;-78
2022/10/23 04:49:31;;;;;;;;;2.50;1.50;;;;;;;;5024311;28;61870;-78
2022/10/23 04:51:56;;;;;;;;;4.00;2.50;;;;;;;;5024537;28;61909;-78
2022/10/23 04:54:21;;;;;;;;;1.75;1.75;;;;;;;;5041847;28;62025;-78
2022/10/23 04:56:47;;;;;;;;;2.50;1.50;;;;;;;;5042514;28;62147;-78
2022/10/23 04:59:12;;;;;;;;;2.25;2.00;;;;;;;;5024426;28;61874;-78
2022/10/23 05:01:37;;;;;;;;;3.33;3.33;;;;;;;;5042678;28;61907;-78
2022/10/23 05:04:03;;;;;;;;;4.00;1.50;;;;;;;;5040754;28;62109;-78
2022/10/23 05:06:28;;;;;;;;;4.00;2.67;;;;;;;;5042576;28;61653;-78
2022/10/23 05:08:53;;;;;;;;;1.00;1.00;;;;;;;;5042511;28;61688;-78
2022/10/23 05:11:18;;;;;;;;;2.75;2.00;;;;;;;;5042361;28;61877;-78
2022/10/23 05:13:44;;;;;;;;;1.00;0.25;;;;;;;;5023471;28;63984;-78
2022/10/23 05:16:11;;;;;;;;;4.25;1.75;;;;;;;;5042733;28;61808;-78
2022/10/23 05:18:39;;;;;;;;;2.25;2.00;;;;;;;;5042297;28;62612;-78
2022/10/23 05:21:12;;;;;;;;;2.00;2.00;;;;;;;;5042665;28;61926;-78
2022/10/23 05:23:39;;;;;;;;;4.25;3.50;;;;;;;;5041627;28;62609;-78
2022/10/23 05:26:05;;;;;;;;;3.00;3.00;;;;;;;;5041976;28;61799;-78
2022/10/23 05:28:30;;;;;;;;;5.00;2.00;;;;;;;;5041935;28;62232;-78
2022/10/23 05:30:57;;;;;;;;;3.50;2.25;;;;;;;;5042619;28;61798;-78
2022/10/23 05:33:23;;;;;;;;;1.25;1.00;;;;;;;;5041915;28;61865;-78
2022/10/23 05:35:48;;;;;;;;;3.00;1.50;;;;;;;;5024134;28;61740;-78
2022/10/23 05:38:14;;;;;;;;;5.00;3.00;;;;;;;;5024215;28;61850;-78
2022/10/23 05:40:39;;;;;;;;;4.33;3.00;;;;;;;;5042273;28;62160;-78
2022/10/23 05:43:04;;;;;;;;;3.00;2.67;;;;;;;;5041314;28;62654;-78
2022/10/23 05:45:30;;;;;;;;;3.33;2.00;;;;;;;;5023805;28;61939;-79
2022/10/23 05:47:55;;;;;;;;;3.33;3.33;;;;;;;;5023590;28;62115;-78
2022/10/23 05:50:20;;;;;;;;;5.00;4.00;;;;;;;;5041900;28;61758;-78
2022/10/23 05:52:46;;;;;;;;;3.67;2.00;;;;;;;;5041554;28;61904;-78
2022/10/23 05:55:12;;;;;;;;;2.00;2.00;;;;;;;;5041680;28;61811;-78
2022/10/23 05:57:37;;;;;;;;;2.67;2.00;;;;;;;;5041783;28;62182;-78
2022/10/23 06:00:03;;;;;;;;;3.00;2.00;;;;;;;;5041822;28;61906;-78
2022/10/23 06:02:28;;;;;;;;;6.00;3.00;;;;;;;;5041270;28;61777;-78
2022/10/23 06:04:53;;;;;;;;;3.00;3.00;;;;;;;;5041748;28;61787;-78
2022/10/23 06:07:25;;;;;;;;;4.50;3.50;;;;;;;;5041955;28;61917;-78
2022/10/23 06:09:50;;;;;;;;;7.25;3.25;;;;;;;;5043696;28;61874;-78
2022/10/23 06:12:15;;;;;;;;;4.00;3.00;;;;;;;;5040847;28;62038;-78
2022/10/23 06:14:40;;;;;;;;;6.00;5.00;;;;;;;;5025431;28;61791;-78
2022/10/23 06:17:06;;;;;;;;;3.75;2.50;;;;;;;;5027269;28;61819;-78
2022/10/23 06:19:31;;;;;;;;;2.00;1.75;;;;;;;;5045179;28;61779;-78
2022/10/23 06:21:56;;;;;;;;;5.00;3.25;;;;;;;;5026516;28;63838;-78
2022/10/23 06:24:22;;;;;;;;;4.75;3.25;;;;;;;;5044900;28;61831;-78
2022/10/23 06:26:47;;;;;;;;;3.00;2.00;;;;;;;;5045398;28;62006;-78
2022/10/23 06:29:12;;;;;;;;;3.75;3.00;;;;;;;;5026870;28;62200;-78
2022/10/23 06:31:37;;;;;;;;;3.75;3.75;;;;;;;;5044548;28;62726;-78
2022/10/23 06:34:03;;;;;;;;;2.25;2.25;;;;;;;;5044629;28;61905;-78
2022/10/23 06:36:28;;;;;;;;;6.00;4.00;;;;;;;;5044928;28;61955;-78
2022/10/23 06:38:55;;;;;;;;;6.00;3.00;;;;;;;;5044883;28;61873;-78
2022/10/23 06:41:20;;;;;;;;;3.00;2.00;;;;;;;;5044074;28;62849;-78
2022/10/23 06:43:46;;;;;;;;;2.75;2.00;;;;;;;;5042963;28;61953;-78
2022/10/23 06:46:11;;;;;;;;;5.75;4.00;;;;;;;;5044893;28;61835;-78
2022/10/23 06:48:37;;;;;;;;;7.25;4.75;;;;;;;;5044939;28;61954;-78
2022/10/23 06:51:06;;;;;;;;;3.00;3.00;;;;;;;;5043348;28;62648;-78
2022/10/23 06:53:31;;;;;;;;;1.50;1.00;;;;;;;;5044122;28;61798;-79
2022/10/23 06:56:00;;;;;;;;;3.00;3.00;;;;;;;;5026699;28;61685;-79
2022/10/23 06:58:25;;;;;;;;;6.00;4.00;;;;;;;;5045029;28;61663;-79
2022/10/23 07:00:50;;;;;;;;;6.75;5.00;;;;;;;;5044329;28;61679;-79
2022/10/23 07:03:16;;;;;;;;;4.50;3.75;;;;;;;;5026460;28;61858;-79
2022/10/23 07:05:43;;;;;;;;;5.75;4.00;;;;;;;;5044406;28;61760;-79
2022/10/23 07:08:09;;;;;;;;;5.00;4.00;;;;;;;;5044531;28;61684;-79
2022/10/23 07:10:34;;;;;;;;;3.50;3.25;;;;;;;;5043626;28;61731;-79
2022/10/23 07:12:59;;;;;;;;;5.00;4.00;;;;;;;;5044318;28;62192;-79
2022/10/23 07:15:25;;;;;;;;;4.00;3.00;;;;;;;;5026357;28;61889;-79
2022/10/23 07:17:51;;;;;;;;;4.00;3.00;;;;;;;;5044400;28;62212;-78
2022/10/23 07:20:16;;;;;;;;;5.00;3.00;;;;;;;;5024762;28;64721;-79
2022/10/23 07:22:41;;;;;;;;;5.00;3.00;;;;;;;;5042789;28;61809;-79
2022/10/23 07:25:06;;;;;;;;;3.50;3.50;;;;;;;;5043206;28;61708;-79
2022/10/23 07:27:34;;;;;;;;;6.00;4.00;;;;;;;;5043456;28;61731;-79
2022/10/23 07:30:00;;;;;;;;;3.25;3.00;;;;;;;;5032400;28;62075;-78
2022/10/23 07:32:27;;;;;;;;;7.50;5.00;;;;;;;;5043463;28;61836;-79
2022/10/23 07:34:52;;;;;;;;;4.33;3.00;;;;;;;;5044082;28;61769;-78
2022/10/23 07:37:17;;;;;;;;;4.25;4.25;;;;;;;;5043726;28;61796;-79
2022/10/23 07:39:42;;;;;;;;;4.50;4.00;;;;;;;;5043298;28;61855;-79
2022/10/23 07:42:08;;;;;;;;;3.67;2.00;;;;;;;;5043905;28;61869;-79
2022/10/23 07:44:34;;;;;;;;;4.75;3.00;;;;;;;;5026104;28;61954;-78
2022/10/23 07:46:59;;;;;;;;;7.00;4.00;;;;;;;;5044092;28;61814;-79
2022/10/23 07:49:24;;;;;;;;;2.50;2.25;;;;;;;;5043170;28;61714;-78
2022/10/23 07:51:51;;;;;;;;;5.00;3.00;;;;;;;;5043511;28;61886;-79
2022/10/23 07:54:17;;;;;;;;;5.00;3.00;;;;;;;;5025526;28;61778;-78
2022/10/23 07:56:42;;;;;;;;;4.00;4.00;;;;;;;;5044080;28;61782;-78
2022/10/23 07:59:10;;;;;;;;;4.00;4.00;;;;;;;;5043147;28;62794;-78
2022/10/23 08:01:36;;;;;;;;;4.75;3.25;;;;;;;;5043827;28;61679;-78
2022/10/23 08:04:02;;;;;;;;;6.75;4.00;;;;;;;;5043618;28;61799;-79
2022/10/23 08:06:28;;;;;;;;;3.25;3.25;;;;;;;;5042805;28;62046;-79
2022/10/23 08:08:53;;;;;;;;;2.00;2.00;;;;;;;;5042964;28;61804;-79
2022/10/23 08:11:24;;;;;;;;;6.00;3.00;;;;;;;;5042578;28;62039;-78
2022/10/23 08:13:50;;;;;;;;;3.00;3.00;;;;;;;;5023999;28;62082;-78
2022/10/23 08:16:15;;;;;;;;;3.00;3.00;;;;;;;;5042827;28;62194;-79
2022/10/23 08:18:41;;;;;;;;;5.50;5.50;;;;;;;;5041072;28;62834;-77
2022/10/23 08:21:07;;;;;;;;;3.75;3.75;;;;;;;;5024323;28;61855;-77
2022/10/23 08:23:32;;;;;;;;;5.75;4.25;;;;;;;;5042692;28;62037;-78
2022/10/23 08:25:59;;;;;;;;;5.50;3.25;;;;;;;;5042812;28;61921;-78
2022/10/23 08:28:24;;;;;;;;;4.25;2.25;;;;;;;;5023399;28;64627;-78
2022/10/23 08:30:49;;;;;;;;;3.50;3.00;;;;;;;;5043437;28;62015;-78
2022/10/23 08:33:14;;;;;;;;;3.75;3.00;;;;;;;;5026355;28;62080;-80
2022/10/23 08:35:40;;;;;;;;;3.33;3.33;;;;;;;;5042739;28;61861;-79
2022/10/23 08:38:05;;;;;;;;;2.00;2.00;;;;;;;;5042082;28;61906;-80
2022/10/23 08:40:31;;;;;;;;;6.00;4.25;;;;;;;;5041475;28;61870;-79
2022/10/23 08:43:00;;;;;;;;;4.00;3.00;;;;;;;;5041820;28;61767;-79
2022/10/23 08:45:29;;;;;;;;;5.00;3.67;;;;;;;;5042160;28;61915;-79
2022/10/23 08:47:57;;;;;;;;;5.75;4.50;;;;;;;;5041833;28;61713;-78
2022/10/23 08:50:41;;;;;;;;;5.33;4.00;;;;;;;;5041551;28;61846;-78
2022/10/23 08:53:14;;;;;;;;;2.67;2.67;;;;;;;;5024471;28;61792;-79
2022/10/23 08:55:41;;;;;;;;;3.33;3.00;;;;;;;;5042743;28;61953;-78
2022/10/23 08:58:14;;;;;;;;;6.33;4.00;;;;;;;;5041352;28;61802;-79
2022/10/23 09:00:40;;;;;;;;;3.00;3.00;;;;;;;;5041665;28;61878;-81
2022/10/23 09:03:05;;;;;;;;;3.00;3.00;;;;;;;;5036841;28;61941;-79
2022/10/23 09:05:35;;;;;;;;;3.67;3.00;;;;;;;;5024248;28;61710;-80
2022/10/23 09:08:16;;;;;;;;;2.33;2.33;;;;;;;;5023308;28;64734;-80
2022/10/23 09:11:02;;;;;;;;;3.00;3.00;;;;;;;;5026190;28;61803;-80
2022/10/23 09:13:46;;;;;;;;;5.33;2.33;;;;;;;;5040701;28;61766;-79
2022/10/23 09:16:24;;;;;;;;;2.00;2.00;;;;;;;;5021802;28;61766;-80
2022/10/23 09:18:49;;;;;;;;;5.00;4.00;;;;;;;;5023800;28;63709;-79
2022/10/23 09:21:15;;;;;;;;;3.00;3.00;;;;;;;;5024637;28;61756;-79
2022/10/23 09:23:40;;;;;;;;;5.33;3.67;;;;;;;;5042639;28;62395;-78
2022/10/23 09:26:16;;;;;;;;;4.67;3.67;;;;;;;;5024986;28;62080;-79
2022/10/23 09:28:46;;;;;;;;;1.67;1.67;;;;;;;;5041532;28;61766;-79
2022/10/23 09:31:12;;;;;;;;;6.00;3.00;;;;;;;;5023677;28;62043;-78
2022/10/23 09:33:38;;;;;;;;;2.00;2.00;;;;;;;;5023365;28;62112;-78
2022/10/23 09:36:05;;;;;;;;;3.00;2.00;;;;;;;;5024293;28;62257;-78
2022/10/23 09:38:51;;;;;;;;;3.00;1.67;;;;;;;;5041021;28;61887;-78
2022/10/23 09:41:16;;;;;;;;;4.00;2.33;;;;;;;;5039498;28;61699;-79
2022/10/23 09:43:42;;;;;;;;;2.67;2.67;;;;;;;;5023455;28;62107;-78
2022/10/23 09:46:08;;;;;;;;;3.00;3.00;;;;;;;;5023718;28;61927;-78
2022/10/23 09:48:34;;;;;;;;;2.33;2.33;;;;;;;;5021924;28;64271;-79
2022/10/23 09:51:00;;;;;;;;;4.33;3.00;;;;;;;;5023801;28;61835;-79
2022/10/23 09:53:31;;;;;;;;;6.00;3.67;;;;;;;;5023864;28;62147;-79
2022/10/23 09:56:06;;;;;;;;;3.33;3.33;;;;;;;;5004402;28;62060;-76
2022/10/23 09:58:37;;;;;;;;;4.00;2.33;;;;;;;;5018401;28;64650;-75
2022/10/23 10:01:03;;;;;;;;;2.00;2.00;;;;;;;;5041321;28;61865;-75
2022/10/23 10:03:28;;;;;;;;;2.00;2.00;;;;;;;;5041635;28;61676;-76
2022/10/23 10:05:58;;;;;;;;;4.00;2.00;;;;;;;;5041973;28;61988;-76
2022/10/23 10:08:26;;;;;;;;;3.67;2.00;;;;;;;;5022841;28;64570;-76
2022/10/23 10:11:01;;;;;;;;;3.67;3.00;;;;;;;;5039095;28;61821;-77
2022/10/23 10:13:37;;;;;;;;;4.00;4.00;;;;;;;;5022789;28;61824;-75
2022/10/23 10:16:05;;;;;;;;;3.33;3.33;;;;;;;;5041122;28;61890;-76
2022/10/23 10:18:42;;;;;;;;;4.00;2.33;;;;;;;;5040319;28;61986;-78
2022/10/23 10:21:26;;;;;;;;;6.33;3.00;;;;;;;;5021271;28;62043;-78
2022/10/23 10:23:59;;;;;;;;;3.33;2.00;;;;;;;;5021596;28;62165;-77
2022/10/23 10:26:33;;;;;;;;;5.33;3.00;;;;;;;;5039307;28;62097;-77
2022/10/23 10:29:08;;;;;;;;;4.00;3.00;;;;;;;;5040253;28;62822;-77
2022/10/23 10:31:51;;;;;;;;;4.33;2.67;;;;;;;;5040204;28;61891;-77
2022/10/23 10:34:23;;;;;;;;;0.67;0.67;;;;;;;;5038953;28;62373;-77
2022/10/23 10:36:48;;;;;;;;;2.33;2.33;;;;;;;;5040825;28;61936;-76
2022/10/23 10:39:16;;;;;;;;;4.33;2.00;;;;;;;;5022424;28;64991;-81
2022/10/23 10:41:41;;;;;;;;;1.67;1.67;;;;;;;;5040713;28;62030;-80
2022/10/23 10:44:18;;;;;;;;;3.00;2.00;;;;;;;;5019873;28;61941;-79
2022/10/23 10:46:54;;;;;;;;;6.67;1.67;;;;;;;;5021396;28;61816;-80
2022/10/23 10:49:37;;;;;;;;;3.00;3.00;;;;;;;;5038227;28;62871;-80
2022/10/23 10:52:12;;;;;;;;;5.00;4.00;;;;;;;;5047421;28;61839;-80
2022/10/23 10:54:56;;;;;;;;;5.33;4.00;;;;;;;;5039701;28;61912;-79
2022/10/23 10:57:30;;;;;;;;;4.00;3.00;;;;;;;;5053283;28;62427;-79
2022/10/23 10:59:58;;;;;;;;;2.33;1.33;;;;;;;;5035840;28;63948;-79
2022/10/23 11:02:38;;;;;;;;;4.00;2.00;;;;;;;;5046444;28;61800;-79
2022/10/23 11:05:22;;;;;;;;;2.67;2.33;;;;;;;;5039126;28;62001;-80
2022/10/23 11:08:07;;;;;;;;;3.67;2.33;;;;;;;;5046259;28;61961;-80
2022/10/23 11:10:34;;;;;;;;;2.33;2.33;;;;;;;;5039727;28;63185;-80
2022/10/23 11:13:01;;;;;;;;;2.33;2.33;;;;;;;;5043680;28;62031;-78
2022/10/23 11:15:35;;;;;;;;;2.67;2.67;;;;;;;;5044655;28;61761;-78
2022/10/23 11:18:02;;;;;;;;;1.67;1.00;;;;;;;;5044554;28;62001;-78
2022/10/23 11:20:31;;;;;;;;;1.67;1.33;;;;;;;;5043578;28;61774;-78
2022/10/23 11:23:15;;;;;;;;;3.33;1.33;;;;;;;;5043961;28;61756;-79
2022/10/23 11:25:55;;;;;;;;;2.33;2.00;;;;;;;;5044417;28;62094;-78
2022/10/23 11:28:40;;;;;;;;;3.00;2.00;;;;;;;;5043259;28;61886;-78
2022/10/23 11:31:12;;;;;;;;;1.00;1.00;;;;;;;;5014503;28;61809;-77
2022/10/23 11:33:56;;;;;;;;;2.33;2.33;;;;;;;;5044048;28;61882;-76
2022/10/23 11:36:39;;;;;;;;;3.00;2.00;;;;;;;;5044295;28;61735;-76
2022/10/23 11:39:17;;;;;;;;;4.67;4.67;;;;;;;;5044115;28;62183;-77
2022/10/23 11:41:50;;;;;;;;;2.00;2.00;;;;;;;;5025339;28;63664;-77
2022/10/23 11:44:34;;;;;;;;;4.33;2.67;;;;;;;;5043722;28;61905;-77
2022/10/23 11:47:01;;;;;;;;;2.00;2.00;;;;;;;;5025779;28;61764;-76
2022/10/23 11:49:26;;;;;;;;;1.00;1.00;;;;;;;;5025399;28;61646;-76
2022/10/23 11:52:02;;;;;;;;;3.00;2.00;;;;;;;;5042030;28;62735;-77
2022/10/23 11:54:28;;;;;;;;;1.00;1.00;;;;;;;;5043024;28;61767;-77
2022/10/23 11:57:06;;;;;;;;;0.33;0.33;;;;;;;;5024330;28;62166;-76
2022/10/23 11:59:32;;;;;;;;;7.00;2.00;;;;;;;;5040123;28;61947;-76
2022/10/23 12:02:02;;;;;;;;;3.33;2.67;;;;;;;;5027035;28;63848;-77
2022/10/23 12:05:02;;;;;;;;;4.00;2.67;;;;;;;;5041968;28;62105;-76
2022/10/23 12:07:33;;;;;;;;;0.00;0.00;;;;;;;;4978018;28;61967;-76
2022/10/23 12:10:03;;;;;;;;;2.00;2.00;;;;;;;;4956452;28;62528;-77
2022/10/23 12:12:39;;;;;;;;;3.00;2.00;;;;;;;;4970610;28;63112;-78
2022/10/23 12:15:13;;;;;;;;;1.33;1.33;;;;;;;;4968689;28;62049;-77
2022/10/23 12:17:39;;;;;;;;;1.67;1.67;;;;;;;;4972142;28;61978;-78
2022/10/23 12:20:07;;;;;;;;;2.67;2.67;;;;;;;;4970155;28;61951;-78
2022/10/23 12:22:47;;;;;;;;;1.00;1.00;;;;;;;;4972908;28;62097;-78
2022/10/23 12:25:18;;;;;;;;;0.50;0.50;;;;;;;;4969166;28;62105;-77
2022/10/23 12:27:52;;;;;;;;;1.67;1.67;;;;;;;;4950899;28;62099;-77
2022/10/23 12:30:17;;;;;;;;;1.00;1.00;;;;;;;;4969454;28;62080;-78
2022/10/23 12:32:42;;;;;;;;;3.00;1.00;;;;;;;;4962168;28;63859;-76
2022/10/23 12:35:17;;;;;;;;;4.00;0.67;;;;;;;;4966147;28;61823;-78
2022/10/23 12:38:01;;;;;;;;;1.00;1.00;;;;;;;;4970891;28;62163;-78
2022/10/23 12:40:29;;;;;;;;;3.00;0.67;;;;;;;;4971309;28;61972;-79
2022/10/23 12:42:56;;;;;;;;;0.33;0.33;;;;;;;;4987793;28;64729;-77
2022/10/23 12:45:35;;;;;;;;;2.00;2.00;;;;;;;;5042658;28;61936;-78
2022/10/23 12:48:00;;;;;;;;;1.67;1.67;;;;;;;;5035913;28;62214;-77
2022/10/23 12:50:27;;;;;;;;;0.33;0.33;;;;;;;;5049759;28;62434;-77
2022/10/23 12:52:59;;;;;;;;;3.00;2.00;;;;;;;;5029836;28;64823;-77
2022/10/23 12:55:25;;;;;;;;;3.33;1.33;;;;;;;;5041659;28;61916;-76
2022/10/23 12:57:52;;;;;;;;;1.67;1.67;;;;;;;;5027883;28;62472;-77
2022/10/23 13:00:19;;;;;;;;;0.67;0.67;;;;;;;;5051854;28;61936;-78
2022/10/23 13:02:44;;;;;;;;;3.67;1.00;;;;;;;;5030572;28;63699;-77
2022/10/23 13:05:19;;;;;;;;;1.00;1.00;;;;;;;;5052448;28;61960;-77
2022/10/23 13:07:45;;;;;;;;;1.00;1.00;;;;;;;;5056150;28;62075;-77
2022/10/23 13:10:15;;;;;;;;;2.67;1.00;;;;;;;;5033856;28;61956;-78
2022/10/23 13:12:42;;;;;;;;;0.67;0.67;;;;;;;;5044256;28;62062;-78
2022/10/23 13:15:09;;;;;;;;;0.33;0.33;;;;;;;;5044950;28;62036;-78
2022/10/23 13:17:43;;;;;;;;;1.67;1.67;;;;;;;;5044850;28;62213;-78
2022/10/23 13:20:15;;;;;;;;;4.00;0.67;;;;;;;;5044682;28;61702;-78
2022/10/23 13:22:40;;;;;;;;;0.00;0.00;;;;;;;;5026623;28;64023;-77
2022/10/23 13:25:21;;;;;;;;;0.67;0.00;;;;;;;;5043632;28;61799;-78
2022/10/23 13:27:46;;;;;;;;;0.67;0.67;;;;;;;;5037649;28;61843;-77
2022/10/23 13:30:47;;;;;;;;;0.67;0.67;;;;;;;;5054816;28;61941;-78
2022/10/23 13:33:14;;;;;;;;;1.00;1.00;;;;;;;;4973462;28;61792;-78
2022/10/23 13:35:39;;;;;;;;;4.00;0.67;;;;;;;;4973634;28;61952;-77
2022/10/23 13:38:08;;;;;;;;;1.00;1.00;;;;;;;;4958192;28;61757;-78
2022/10/23 13:40:33;;;;;;;;;2.67;0.67;;;;;;;;4958317;28;61882;-78
2022/10/23 13:42:59;;;;;;;;;1.33;1.33;;;;;;;;4973187;28;62094;-78
2022/10/23 13:45:25;;;;;;;;;1.00;1.00;;;;;;;;4974487;28;62366;-77
2022/10/23 13:47:50;;;;;;;;;1.00;1.00;;;;;;;;4970029;28;62062;-75
2022/10/23 13:50:17;;;;;;;;;1.00;1.00;;;;;;;;4968334;28;61949;-78
2022/10/23 13:52:43;;;;;;;;;0.67;0.67;;;;;;;;4968943;28;62048;-77
2022/10/23 13:55:17;;;;;;;;;0.33;0.33;;;;;;;;4969704;28;61942;-78
2022/10/23 13:57:42;;;;;;;;;1.67;0.67;;;;;;;;4968787;28;61996;-85
2022/10/23 14:00:08;;;;;;;;;4.33;0.67;;;;;;;;4969402;28;62025;-81
2022/10/23 14:02:33;;;;;;;;;0.33;0.33;;;;;;;;4969269;28;62581;-80
2022/10/23 14:04:58;;;;;;;;;1.33;1.33;;;;;;;;4968172;28;61872;-81
2022/10/23 14:07:24;;;;;;;;;1.00;1.00;;;;;;;;5014268;28;61840;-80
2022/10/23 14:09:49;;;;;;;;;3.00;1.00;;;;;;;;5049520;28;61860;-82
2022/10/23 14:12:14;;;;;;;;;1.00;0.67;;;;;;;;5047692;28;62059;-80
2022/10/23 14:14:40;;;;;;;;;1.33;1.33;;;;;;;;5029541;28;62004;-80
2022/10/23 14:17:05;;;;;;;;;0.67;0.67;;;;;;;;5048571;28;61785;-82
2022/10/23 14:19:31;;;;;;;;;2.00;2.00;;;;;;;;5033492;28;62290;-82
2022/10/23 14:21:57;;;;;;;;;0.67;0.67;;;;;;;;5048367;28;63028;-82
2022/10/23 14:24:22;;;;;;;;;3.67;0.00;;;;;;;;5020273;28;61783;-79
2022/10/23 14:26:49;;;;;;;;;1.00;1.00;;;;;;;;5013431;28;61806;-79
2022/10/23 14:29:14;;;;;;;;;4.67;1.67;;;;;;;;5036090;28;62186;-83
2022/10/23 14:31:40;;;;;;;;;0.67;0.67;;;;;;;;5046168;28;62158;-81
2022/10/23 14:34:06;;;;;;;;;1.67;0.67;;;;;;;;5049253;28;62043;-81
2022/10/23 14:36:31;;;;;;;;;0.67;0.67;;;;;;;;5052147;28;61838;-82
2022/10/23 14:38:57;;;;;;;;;1.00;1.00;;;;;;;;5053851;28;62137;-82
2022/10/23 14:41:24;;;;;;;;;1.00;1.00;;;;;;;;5032371;28;63639;-82
2022/10/23 14:43:49;;;;;;;;;1.00;1.00;;;;;;;;5029885;28;62271;-83
2022/10/23 14:46:16;;;;;;;;;1.67;1.67;;;;;;;;5035273;28;62244;-80
2022/10/23 14:48:41;;;;;;;;;4.67;1.33;;;;;;;;5052655;28;61693;-79
2022/10/23 14:51:14;;;;;;;;;1.00;1.00;;;;;;;;5063030;28;61776;-86